sensor_id;sensor_type;location;lat;lon;timestamp;pressure;altitude;pressure_sealevel;temperature;humidity
48027;BME280;50714;49.208;5.364;2023-06-26T00:08:15;99293.66;;;21.65;59.23
48027;BME280;50714;49.208;5.364;2023-06-26T00:18:15;99292.84;;;21.54;59.95
48027;BME280;50714;49.208;5.364;2023-06-26T00:28:16;99292.09;;;21.38;59.75
48027;BME280;50714;49.208;5.364;2023-06-26T00:38:16;99374.72;;;21.17;60.32
48027;BME280;50714;49.208;5.364;2023-06-26T00:48:17;99357.97;;;21.03;61.17
48027;BME280;50714;49.208;5.364;2023-06-26T00:58:18;99359.09;;;21.02;61.73
48027;BME280;50714;49.208;5.364;2023-06-26T01:08:19;99349.19;;;21.06;62.61
48027;BME280;50714;49.208;5.364;2023-06-26T01:18:20;99355.00;;;21.25;62.15
48027;BME280;50714;49.208;5.364;2023-06-26T01:28:22;99359.91;;;21.18;62.66
48027;BME280;50714;49.208;5.364;2023-06-26T01:38:24;99370.88;;;21.07;63.02
48027;BME280;50714;49.208;5.364;2023-06-26T01:48:30;99377.19;;;20.98;62.76
48027;BME280;50714;49.208;5.364;2023-06-26T01:58:33;99389.25;;;20.76;63.92
48027;BME280;50714;49.208;5.364;2023-06-26T02:08:33;99391.19;;;20.76;64.21
48027;BME280;50714;49.208;5.364;2023-06-26T02:18:34;99394.19;;;20.80;64.47
48027;BME280;50714;49.208;5.364;2023-06-26T02:28:34;99398.31;;;20.77;65.12
48027;BME280;50714;49.208;5.364;2023-06-26T02:38:35;99408.44;;;20.82;65.17
48027;BME280;50714;49.208;5.364;2023-06-26T02:48:35;99419.97;;;20.73;65.48
48027;BME280;50714;49.208;5.364;2023-06-26T02:58:35;99433.09;;;20.66;65.50
48027;BME280;50714;49.208;5.364;2023-06-26T03:08:36;99451.72;;;20.59;65.68
48027;BME280;50714;49.208;5.364;2023-06-26T03:18:37;99457.50;;;20.53;66.04
48027;BME280;50714;49.208;5.364;2023-06-26T03:28:37;99462.13;;;20.47;66.26
48027;BME280;50714;49.208;5.364;2023-06-26T03:38:37;99475.25;;;20.40;66.09
48027;BME280;50714;49.208;5.364;2023-06-26T03:48:38;99480.66;;;20.35;66.46
48027;BME280;50714;49.208;5.364;2023-06-26T03:58:38;99491.06;;;20.33;67.09
48027;BME280;50714;49.208;5.364;2023-06-26T04:08:39;99508.66;;;20.37;67.03
48027;BME280;50714;49.208;5.364;2023-06-26T04:18:39;99526.75;;;20.38;66.77
48027;BME280;50714;49.208;5.364;2023-06-26T04:28:40;99551.94;;;20.35;66.80
48027;BME280;50714;49.208;5.364;2023-06-26T04:38:40;99554.41;;;20.36;66.79
48027;BME280;50714;49.208;5.364;2023-06-26T04:48:40;99554.75;;;20.40;66.99
48027;BME280;50714;49.208;5.364;2023-06-26T04:58:40;99578.09;;;20.48;66.92
48027;BME280;50714;49.208;5.364;2023-06-26T05:08:41;99589.34;;;20.56;67.64
48027;BME280;50714;49.208;5.364;2023-06-26T05:18:41;99597.72;;;20.76;67.51
48027;BME280;50714;49.208;5.364;2023-06-26T05:28:42;99609.81;;;20.86;67.08
48027;BME280;50714;49.208;5.364;2023-06-26T05:38:44;99611.47;;;20.92;67.18
48027;BME280;50714;49.208;5.364;2023-06-26T05:48:44;99618.09;;;20.96;66.99
48027;BME280;50714;49.208;5.364;2023-06-26T05:58:46;99623.31;;;21.02;66.90
48027;BME280;50714;49.208;5.364;2023-06-26T06:08:47;99625.63;;;21.21;66.41
48027;BME280;50714;49.208;5.364;2023-06-26T06:18:47;99647.06;;;21.34;66.33
48027;BME280;50714;49.208;5.364;2023-06-26T06:28:48;99658.38;;;21.58;65.71
48027;BME280;50714;49.208;5.364;2023-06-26T06:38:48;99661.69;;;21.75;64.11
48027;BME280;50714;49.208;5.364;2023-06-26T06:48:48;99667.75;;;21.67;63.48
48027;BME280;50714;49.208;5.364;2023-06-26T06:58:49;99684.81;;;21.94;63.87
48027;BME280;50714;49.208;5.364;2023-06-26T07:08:49;99677.97;;;22.27;62.99
48027;BME280;50714;49.208;5.364;2023-06-26T07:18:50;99694.47;;;22.58;61.31
48027;BME280;50714;49.208;5.364;2023-06-26T07:28:52;99693.63;;;22.83;59.13
48027;BME280;50714;49.208;5.364;2023-06-26T07:38:52;99699.63;;;23.00;58.16
48027;BME280;50714;49.208;5.364;2023-06-26T07:48:53;99701.75;;;23.23;57.18
48027;BME280;50714;49.208;5.364;2023-06-26T07:58:53;99704.94;;;23.56;56.73
48027;BME280;50714;49.208;5.364;2023-06-26T08:08:53;99728.75;;;23.86;56.06
48027;BME280;50714;49.208;5.364;2023-06-26T08:18:54;99733.25;;;24.10;55.60
48027;BME280;50714;49.208;5.364;2023-06-26T08:28:54;99748.16;;;24.48;54.06
48027;BME280;50714;49.208;5.364;2023-06-26T08:38:54;99745.72;;;25.05;53.81
48027;BME280;50714;49.208;5.364;2023-06-26T08:48:56;99739.59;;;25.32;51.92
48027;BME280;50714;49.208;5.364;2023-06-26T08:58:58;99739.28;;;26.00;50.92
48027;BME280;50714;49.208;5.364;2023-06-26T09:08:59;99734.47;;;27.49;49.30
48027;BME280;50714;49.208;5.364;2023-06-26T09:18:59;99731.47;;;29.95;47.39
48027;BME280;50714;49.208;5.364;2023-06-26T09:29:00;99740.91;;;34.36;40.85
48027;BME280;50714;49.208;5.364;2023-06-26T09:39:00;99749.38;;;37.25;35.21
48027;BME280;50714;49.208;5.364;2023-06-26T09:49:11;99763.75;;;38.85;27.63
48027;BME280;50714;49.208;5.364;2023-06-26T09:59:11;99757.13;;;39.44;29.98
48027;BME280;50714;49.208;5.364;2023-06-26T10:09:13;99779.00;;;38.47;29.11
48027;BME280;50714;49.208;5.364;2023-06-26T10:19:16;99782.41;;;38.60;28.51
48027;BME280;50714;49.208;5.364;2023-06-26T10:29:23;99781.88;;;38.54;28.65
48027;BME280;50714;49.208;5.364;2023-06-26T10:39:23;99781.13;;;38.27;22.46
48027;BME280;50714;49.208;5.364;2023-06-26T10:49:28;99787.50;;;37.68;26.08
48027;BME280;50714;49.208;5.364;2023-06-26T10:59:31;99789.78;;;37.16;27.09
48027;BME280;50714;49.208;5.364;2023-06-26T11:09:31;99792.81;;;37.50;22.44
48027;BME280;50714;49.208;5.364;2023-06-26T11:19:32;99801.28;;;36.85;26.49
48027;BME280;50714;49.208;5.364;2023-06-26T11:29:33;99810.28;;;36.20;26.02
48027;BME280;50714;49.208;5.364;2023-06-26T11:39:33;99807.63;;;36.08;26.40
48027;BME280;50714;49.208;5.364;2023-06-26T11:49:33;99816.22;;;35.21;26.17
48027;BME280;50714;49.208;5.364;2023-06-26T11:59:39;99812.13;;;34.47;26.68
48027;BME280;50714;49.208;5.364;2023-06-26T12:09:43;99813.69;;;33.14;27.32
48027;BME280;50714;49.208;5.364;2023-06-26T12:19:45;99821.88;;;31.65;28.70
48027;BME280;50714;49.208;5.364;2023-06-26T12:29:51;99820.00;;;30.58;29.80
48027;BME280;50714;49.208;5.364;2023-06-26T12:39:55;99839.69;;;29.96;30.73
48027;BME280;50714;49.208;5.364;2023-06-26T12:49:55;99827.63;;;29.61;30.89
48027;BME280;50714;49.208;5.364;2023-06-26T12:59:57;99818.94;;;29.32;30.90
48027;BME280;50714;49.208;5.364;2023-06-26T13:10:01;99824.16;;;28.94;32.37
48027;BME280;50714;49.208;5.364;2023-06-26T13:20:01;99817.31;;;28.55;32.32
48027;BME280;50714;49.208;5.364;2023-06-26T13:30:01;99811.66;;;28.10;32.79
48027;BME280;50714;49.208;5.364;2023-06-26T13:40:02;99815.75;;;28.13;33.26
48027;BME280;50714;49.208;5.364;2023-06-26T13:50:04;99829.34;;;28.01;33.63
48027;BME280;50714;49.208;5.364;2023-06-26T14:00:07;99832.63;;;27.89;33.66
48027;BME280;50714;49.208;5.364;2023-06-26T14:10:08;99822.06;;;27.64;34.08
48027;BME280;50714;49.208;5.364;2023-06-26T14:20:09;99817.84;;;27.39;34.11
48027;BME280;50714;49.208;5.364;2023-06-26T14:30:16;99818.63;;;27.26;34.26
48027;BME280;50714;49.208;5.364;2023-06-26T14:40:16;99812.88;;;27.08;35.04
48027;BME280;50714;49.208;5.364;2023-06-26T14:50:17;99809.09;;;26.86;35.41
48027;BME280;50714;49.208;5.364;2023-06-26T15:00:17;99814.19;;;26.78;35.36
48027;BME280;50714;49.208;5.364;2023-06-26T15:10:18;99808.09;;;26.63;35.84
48027;BME280;50714;49.208;5.364;2023-06-26T15:20:18;99797.69;;;26.55;35.88
48027;BME280;50714;49.208;5.364;2023-06-26T15:30:19;99807.28;;;26.43;35.99
48027;BME280;50714;49.208;5.364;2023-06-26T15:40:19;99794.03;;;26.22;36.29
48027;BME280;50714;49.208;5.364;2023-06-26T15:50:19;99785.63;;;26.27;36.02
48027;BME280;50714;49.208;5.364;2023-06-26T16:00:20;99784.22;;;26.10;35.84
48027;BME280;50714;49.208;5.364;2023-06-26T16:10:21;99800.56;;;25.88;36.49
48027;BME280;50714;49.208;5.364;2023-06-26T16:20:21;99787.28;;;25.90;36.64
48027;BME280;50714;49.208;5.364;2023-06-26T16:30:22;99775.16;;;25.86;36.70
48027;BME280;50714;49.208;5.364;2023-06-26T16:40:22;99775.97;;;25.68;37.07
48027;BME280;50714;49.208;5.364;2023-06-26T16:50:23;99775.81;;;25.54;37.48
48027;BME280;50714;49.208;5.364;2023-06-26T17:00:23;99775.72;;;25.40;37.79
48027;BME280;50714;49.208;5.364;2023-06-26T17:10:23;99787.97;;;25.29;37.78
48027;BME280;50714;49.208;5.364;2023-06-26T17:20:24;99798.56;;;25.22;38.12
48027;BME280;50714;49.208;5.364;2023-06-26T17:30:24;99801.47;;;25.07;37.98
48027;BME280;50714;49.208;5.364;2023-06-26T17:40:25;99806.28;;;24.96;38.46
48027;BME280;50714;49.208;5.364;2023-06-26T17:50:25;99810.56;;;24.78;38.23
48027;BME280;50714;49.208;5.364;2023-06-26T18:00:26;99824.50;;;24.58;38.42
48027;BME280;50714;49.208;5.364;2023-06-26T18:10:26;99831.53;;;24.40;38.71
48027;BME280;50714;49.208;5.364;2023-06-26T18:20:27;99839.34;;;24.23;38.86
48027;BME280;50714;49.208;5.364;2023-06-26T18:30:27;99849.94;;;24.06;39.17
48027;BME280;50714;49.208;5.364;2023-06-26T18:40:27;99865.44;;;23.87;39.28
48027;BME280;50714;49.208;5.364;2023-06-26T18:50:28;99877.09;;;23.63;39.60
48027;BME280;50714;49.208;5.364;2023-06-26T19:00:29;99881.28;;;23.30;39.46
48027;BME280;50714;49.208;5.364;2023-06-26T19:10:31;99896.72;;;23.06;40.21
48027;BME280;50714;49.208;5.364;2023-06-26T19:20:31;99896.72;;;22.86;40.23
48027;BME280;50714;49.208;5.364;2023-06-26T19:30:31;99898.03;;;22.68;40.42
48027;BME280;50714;49.208;5.364;2023-06-26T19:40:34;99911.47;;;22.49;40.65
48027;BME280;50714;49.208;5.364;2023-06-26T19:50:35;99910.84;;;22.27;40.51
48027;BME280;50714;49.208;5.364;2023-06-26T20:00:35;99920.97;;;22.06;40.91
48027;BME280;50714;49.208;5.364;2023-06-26T20:10:37;99937.09;;;21.97;41.20
48027;BME280;50714;49.208;5.364;2023-06-26T20:20:38;99943.88;;;21.79;41.22
48027;BME280;50714;49.208;5.364;2023-06-26T20:30:39;99944.56;;;21.60;41.54
48027;BME280;50714;49.208;5.364;2023-06-26T20:40:40;99950.00;;;21.50;42.25
48027;BME280;50714;49.208;5.364;2023-06-26T20:50:41;99957.88;;;21.36;42.41
48027;BME280;50714;49.208;5.364;2023-06-26T21:00:41;99958.09;;;21.02;43.16
48027;BME280;50714;49.208;5.364;2023-06-26T21:10:41;99952.72;;;20.59;44.09
48027;BME280;50714;49.208;5.364;2023-06-26T21:20:42;99964.28;;;20.39;44.50
48027;BME280;50714;49.208;5.364;2023-06-26T21:30:42;99958.84;;;20.22;44.83
48027;BME280;50714;49.208;5.364;2023-06-26T21:40:44;99972.41;;;20.12;44.95
48027;BME280;50714;49.208;5.364;2023-06-26T21:50:44;99978.34;;;20.04;45.11
48027;BME280;50714;49.208;5.364;2023-06-26T22:00:44;99981.34;;;20.02;44.95
48027;BME280;50714;49.208;5.364;2023-06-26T22:10:45;99996.63;;;19.98;44.78
48027;BME280;50714;49.208;5.364;2023-06-26T22:20:45;99987.16;;;19.89;45.38
48027;BME280;50714;49.208;5.364;2023-06-26T22:30:47;99984.19;;;19.91;45.49
48027;BME280;50714;49.208;5.364;2023-06-26T22:40:47;99988.63;;;19.75;46.14
48027;BME280;50714;49.208;5.364;2023-06-26T22:50:47;99990.59;;;19.63;46.01
48027;BME280;50714;49.208;5.364;2023-06-26T23:00:48;99998.09;;;19.51;46.71
48027;BME280;50714;49.208;5.364;2023-06-26T23:10:48;100006.44;;;19.44;46.99
48027;BME280;50714;49.208;5.364;2023-06-26T23:20:48;99996.75;;;19.36;46.99
48027;BME280;50714;49.208;5.364;2023-06-26T23:30:49;99997.72;;;19.14;47.39
48027;BME280;50714;49.208;5.364;2023-06-26T23:40:49;99988.66;;;18.68;48.33
48027;BME280;50714;49.208;5.364;2023-06-26T23:50:49;99998.44;;;18.52;49.41
